createdAt,value
2022-09-15T00:01:54.610Z,13.39
2022-09-15T00:04:56.871Z,13.36
2022-09-15T00:07:58.884Z,13.31
2022-09-15T00:11:11.182Z,13.39
2022-09-15T00:14:13.201Z,13.29
2022-09-15T00:17:15.656Z,13.17
2022-09-15T00:20:19.662Z,13.20
2022-09-15T00:23:21.908Z,13.06
2022-09-15T00:26:26.061Z,13.18
2022-09-15T00:29:28.475Z,13.17
2022-09-15T00:32:30.732Z,13.26
2022-09-15T00:35:37.020Z,13.19
2022-09-15T00:38:39.345Z,13.13
2022-09-15T00:41:41.860Z,12.99
2022-09-15T00:44:56.499Z,13.04
2022-09-15T00:47:58.974Z,12.92
2022-09-15T00:51:03.070Z,12.94
2022-09-15T00:54:11.327Z,12.98
2022-09-15T00:57:26.228Z,13.01
2022-09-15T01:00:29.109Z,13.10
2022-09-15T01:03:33.173Z,13.09
2022-09-15T01:06:44.335Z,13.07
2022-09-15T01:09:52.309Z,13.10
2022-09-15T01:13:01.497Z,13.10
2022-09-15T01:20:23.610Z,13.02
2022-09-15T01:24:03.298Z,13.08
2022-09-15T01:27:30.906Z,12.96
2022-09-15T01:30:37.388Z,12.94
2022-09-15T01:34:00.112Z,12.97
2022-09-15T01:37:10.517Z,12.99
2022-09-15T01:40:13.258Z,13.00
2022-09-15T01:43:17.033Z,12.93
2022-09-15T01:46:21.807Z,12.99
2022-09-15T01:49:31.444Z,13.05
2022-09-15T01:52:33.852Z,13.05
2022-09-15T01:55:43.321Z,13.08
2022-09-15T01:58:45.701Z,13.07
2022-09-15T02:02:10.086Z,13.12
2022-09-15T02:05:25.740Z,13.05
2022-09-15T02:08:37.516Z,13.01
2022-09-15T02:11:47.749Z,13.03
2022-09-15T02:14:57.635Z,13.10
2022-09-15T02:18:03.258Z,13.10
2022-09-15T02:21:22.512Z,13.10
2022-09-15T02:24:37.280Z,13.17
2022-09-15T02:27:49.944Z,13.20
2022-09-15T02:30:54.305Z,13.25
2022-09-15T02:34:03.663Z,13.21
2022-09-15T02:37:06.891Z,13.22
2022-09-15T02:40:09.520Z,13.24
2022-09-15T02:43:14.846Z,13.20
2022-09-15T02:46:19.115Z,13.18
2022-09-15T02:49:21.500Z,13.25
2022-09-15T02:52:23.833Z,13.25
2022-09-15T02:55:29.085Z,13.31
2022-09-15T02:58:31.320Z,13.30
2022-09-15T03:01:35.035Z,13.35
2022-09-15T03:04:37.146Z,13.32
2022-09-15T03:07:40.755Z,13.27
2022-09-15T03:10:42.711Z,13.28
2022-09-15T03:13:45.545Z,13.36
2022-09-15T03:16:47.759Z,13.37
2022-09-15T03:19:50.779Z,13.41
2022-09-15T03:22:52.771Z,13.42
2022-09-15T03:25:55.450Z,13.44
2022-09-15T03:28:57.515Z,13.46
2022-09-15T03:31:59.702Z,13.47
2022-09-15T03:35:02.114Z,13.50
2022-09-15T03:38:04.408Z,13.53
2022-09-15T03:41:08.739Z,13.49
2022-09-15T03:44:10.979Z,13.51
2022-09-15T03:47:13.138Z,13.52
2022-09-15T03:50:15.397Z,13.55
2022-09-15T03:53:18.207Z,13.58
2022-09-15T03:56:27.390Z,13.62
2022-09-15T03:59:29.421Z,13.60
2022-09-15T04:02:31.681Z,13.58
2022-09-15T04:05:34.169Z,13.60
2022-09-15T04:08:36.615Z,13.59
2022-09-15T04:11:39.595Z,13.59
2022-09-15T04:14:42.220Z,13.61
2022-09-15T04:17:44.257Z,13.62
2022-09-15T04:20:46.472Z,13.59
2022-09-15T04:23:48.668Z,13.53
2022-09-15T04:26:50.906Z,13.46
2022-09-15T04:29:53.435Z,13.44
2022-09-15T04:32:55.744Z,13.42
2022-09-15T04:36:06.305Z,13.43
2022-09-15T04:39:08.774Z,13.38
2022-09-15T04:42:10.724Z,13.38
2022-09-15T04:45:12.973Z,13.39
2022-09-15T04:48:14.975Z,13.36
2022-09-15T04:51:19.998Z,13.38
2022-09-15T04:54:21.905Z,13.41
2022-09-15T04:57:24.077Z,13.42
2022-09-15T05:00:27.035Z,13.45
2022-09-15T05:03:29.333Z,13.57
2022-09-15T05:06:32.243Z,13.54
2022-09-15T05:09:34.589Z,13.53
2022-09-15T05:12:36.606Z,13.38
2022-09-15T05:15:38.955Z,13.43
2022-09-15T05:18:42.284Z,13.49
2022-09-15T05:21:45.218Z,13.52
2022-09-15T05:24:47.378Z,13.58
2022-09-15T05:27:49.590Z,13.64
2022-09-15T05:30:55.715Z,13.76
2022-09-15T05:34:00.526Z,13.87
2022-09-15T05:37:03.018Z,13.97
2022-09-15T05:40:08.599Z,13.97
2022-09-15T05:43:11.373Z,13.97
2022-09-15T05:46:14.320Z,14.10
2022-09-15T05:49:16.458Z,14.17
2022-09-15T05:52:18.758Z,14.27
2022-09-15T05:55:20.772Z,14.38
2022-09-15T05:58:23.412Z,14.37
2022-09-15T06:01:28.161Z,14.43
2022-09-15T06:04:30.948Z,14.52
2022-09-15T06:07:33.057Z,14.57
2022-09-15T06:10:36.566Z,14.71
2022-09-15T06:13:39.006Z,14.74
2022-09-15T06:16:41.382Z,14.82
2022-09-15T06:19:43.368Z,14.86
2022-09-15T06:22:46.032Z,14.84
2022-09-15T06:25:48.249Z,14.82
2022-09-15T06:28:58.479Z,14.87
2022-09-15T06:32:02.947Z,14.94
2022-09-15T06:35:08.703Z,14.93
2022-09-15T06:38:11.699Z,14.99
2022-09-15T06:41:14.340Z,15.13
2022-09-15T06:44:16.365Z,15.08
2022-09-15T06:47:18.585Z,15.31
2022-09-15T06:50:21.805Z,15.34
2022-09-15T06:53:24.058Z,15.43
2022-09-15T06:56:26.165Z,15.55
2022-09-15T06:59:28.405Z,15.79
2022-09-15T07:02:37.280Z,16.06
2022-09-15T07:05:40.907Z,16.36
2022-09-15T07:08:43.344Z,16.52
2022-09-15T07:11:45.860Z,16.52
2022-09-15T07:14:48.257Z,16.38
2022-09-15T07:17:50.506Z,16.49
2022-09-15T07:20:53.976Z,16.55
2022-09-15T07:23:57.755Z,16.68
2022-09-15T07:27:00.938Z,16.64
2022-09-15T07:30:04.138Z,16.81
2022-09-15T07:33:07.096Z,17.05
2022-09-15T07:36:10.308Z,17.13
2022-09-15T07:39:12.376Z,17.48
2022-09-15T07:42:15.512Z,17.78
2022-09-15T07:45:17.774Z,17.96
2022-09-15T07:48:23.246Z,17.82
2022-09-15T07:51:28.481Z,17.89
2022-09-15T07:54:30.704Z,18.16
2022-09-15T07:57:32.768Z,18.17
2022-09-15T08:00:35.292Z,18.43
2022-09-15T08:03:51.893Z,18.32
2022-09-15T08:06:54.421Z,18.65
2022-09-15T08:09:56.551Z,18.67
2022-09-15T08:12:59.739Z,18.83
2022-09-15T08:16:08.623Z,19.08
2022-09-15T08:19:12.219Z,19.48
2022-09-15T08:22:14.288Z,19.31
2022-09-15T08:25:16.645Z,19.76
2022-09-15T08:28:19.054Z,20.24
2022-09-15T08:31:24.246Z,20.20
2022-09-15T08:34:27.645Z,20.34
2022-09-15T08:37:29.842Z,20.37
2022-09-15T08:40:36.060Z,20.80
2022-09-15T08:43:44.906Z,20.92
2022-09-15T08:47:21.122Z,21.14
2022-09-15T08:50:34.291Z,21.24
2022-09-15T08:53:40.832Z,21.23
2022-09-15T08:56:43.893Z,21.46
2022-09-15T08:59:46.482Z,21.55
2022-09-15T09:03:26.518Z,21.82
2022-09-15T09:06:41.401Z,22.00
2022-09-15T09:10:02.241Z,21.94
2022-09-15T09:13:17.287Z,22.08
2022-09-15T09:16:43.819Z,21.88
2022-09-15T09:19:58.032Z,21.84
2022-09-15T09:23:02.550Z,21.77
2022-09-15T09:26:09.908Z,21.91
2022-09-15T09:29:19.870Z,21.73
2022-09-15T09:32:25.255Z,21.82
2022-09-15T09:35:47.253Z,22.00
2022-09-15T09:38:50.080Z,21.93
2022-09-15T09:41:52.428Z,21.86
2022-09-15T09:44:54.457Z,21.69
2022-09-15T09:48:03.051Z,21.39
2022-09-15T09:51:05.188Z,21.23
2022-09-15T09:54:16.105Z,21.06
2022-09-15T09:57:28.118Z,21.11
2022-09-15T10:00:38.623Z,21.21
2022-09-15T10:03:41.939Z,20.97
2022-09-15T10:06:44.783Z,20.78
2022-09-15T10:09:52.968Z,20.83
2022-09-15T10:12:56.646Z,21.02
2022-09-15T10:16:01.434Z,20.96
2022-09-15T10:19:03.841Z,20.80
2022-09-15T10:22:06.014Z,20.79
2022-09-15T10:25:20.444Z,20.71
2022-09-15T10:28:25.751Z,20.70
2022-09-15T10:31:31.147Z,20.68
2022-09-15T10:34:33.234Z,20.81
2022-09-15T10:37:44.220Z,20.78
2022-09-15T10:41:04.523Z,20.57
2022-09-15T10:44:27.770Z,20.36
2022-09-15T10:47:41.617Z,20.53
2022-09-15T10:51:26.942Z,20.48
2022-09-15T10:54:35.090Z,20.32
2022-09-15T10:57:55.607Z,21.06
2022-09-15T11:01:00.560Z,21.44
2022-09-15T11:04:21.157Z,21.83
2022-09-15T11:07:46.994Z,21.64
2022-09-15T11:11:14.036Z,21.22
2022-09-15T11:14:34.981Z,21.29
2022-09-15T11:18:14.556Z,21.20
2022-09-15T11:21:32.263Z,21.02
2022-09-15T11:25:12.665Z,20.84
2022-09-15T11:29:03.473Z,21.04
2022-09-15T11:32:27.763Z,21.34
2022-09-15T11:35:51.872Z,21.09
2022-09-15T11:39:19.504Z,20.99
2022-09-15T11:42:32.233Z,21.00
2022-09-15T11:45:39.935Z,20.98
2022-09-15T11:48:47.096Z,20.96
2022-09-15T11:51:54.713Z,21.41
2022-09-15T11:55:06.873Z,21.87
2022-09-15T11:58:21.019Z,22.25
2022-09-15T12:01:27.482Z,22.49
2022-09-15T12:04:32.701Z,22.43
2022-09-15T12:07:43.746Z,22.62
2022-09-15T12:10:50.081Z,22.82
2022-09-15T12:13:53.042Z,22.07
2022-09-15T12:16:56.137Z,21.87
2022-09-15T12:20:13.012Z,21.69
2022-09-15T12:23:41.066Z,21.69
2022-09-15T12:26:46.413Z,21.55
2022-09-15T12:29:53.868Z,21.41
2022-09-15T12:32:56.804Z,21.30
2022-09-15T12:36:37.620Z,20.98
2022-09-15T12:39:43.153Z,20.98
2022-09-15T12:42:46.093Z,20.86
2022-09-15T12:46:01.767Z,20.80
2022-09-15T12:49:04.357Z,20.64
2022-09-15T12:52:07.881Z,20.66
2022-09-15T12:55:19.128Z,20.62
2022-09-15T12:58:36.983Z,20.64
2022-09-15T13:01:49.098Z,20.74
2022-09-15T13:04:53.882Z,20.67
2022-09-15T13:07:57.791Z,20.65
2022-09-15T13:11:02.129Z,20.62
2022-09-15T13:14:04.466Z,20.64
2022-09-15T13:17:25.521Z,20.52
2022-09-15T13:20:32.195Z,20.26
2022-09-15T13:23:38.505Z,20.37
2022-09-15T13:26:40.977Z,20.08
2022-09-15T13:30:31.085Z,20.08
2022-09-15T13:40:58.188Z,20.04
2022-09-15T13:44:26.351Z,19.79
2022-09-15T13:48:07.307Z,19.76
2022-09-15T13:51:19.631Z,19.62
2022-09-15T13:54:22.068Z,19.53
2022-09-15T13:58:55.169Z,19.56
2022-09-15T14:01:02.099Z,19.51
2022-09-15T14:04:16.648Z,19.71
2022-09-15T14:07:23.369Z,19.97
2022-09-15T14:10:27.967Z,20.13
2022-09-15T14:13:30.740Z,20.18
2022-09-15T14:16:35.852Z,20.14
2022-09-15T14:19:39.722Z,20.14
2022-09-15T14:22:41.863Z,20.13
2022-09-15T14:25:45.863Z,20.12
2022-09-15T14:29:07.127Z,19.96
2022-09-15T14:32:14.950Z,20.01
2022-09-15T14:35:20.180Z,20.06
2022-09-15T14:38:24.867Z,20.05
2022-09-15T14:41:32.503Z,19.89
2022-09-15T14:48:08.507Z,19.72
2022-09-15T14:51:24.447Z,19.63
2022-09-15T14:54:29.996Z,19.43
2022-09-15T14:57:36.783Z,19.43
2022-09-15T15:01:09.762Z,19.47
2022-09-15T15:04:33.425Z,19.45
2022-09-15T15:07:37.645Z,19.40
2022-09-15T15:10:40.617Z,19.53
2022-09-15T15:13:46.459Z,19.54
2022-09-15T15:16:59.835Z,19.42
2022-09-15T15:20:10.832Z,19.34
2022-09-15T15:23:17.603Z,19.28
2022-09-15T15:26:28.317Z,19.14
2022-09-15T15:29:44.583Z,19.14
2022-09-15T15:32:47.353Z,19.17
2022-09-15T15:36:04.873Z,19.04
2022-09-15T15:39:08.078Z,19.01
2022-09-15T15:42:15.256Z,18.89
2022-09-15T15:45:26.266Z,18.83
2022-09-15T15:48:37.906Z,18.84
2022-09-15T15:51:41.174Z,18.81
2022-09-15T15:54:43.649Z,18.89
2022-09-15T15:57:48.796Z,18.84
2022-09-15T16:00:53.352Z,18.84
2022-09-15T16:03:55.522Z,18.94
2022-09-15T16:06:57.796Z,18.97
2022-09-15T16:10:00.375Z,18.95
2022-09-15T16:13:02.701Z,18.98
2022-09-15T16:16:14.427Z,18.87
2022-09-15T16:19:16.809Z,18.85
2022-09-15T16:22:23.220Z,18.82
2022-09-15T16:25:44.049Z,18.83
2022-09-15T16:28:46.363Z,18.60
2022-09-15T16:31:49.038Z,18.62
2022-09-15T16:34:53.865Z,18.64
2022-09-15T16:37:56.187Z,18.52
2022-09-15T16:40:58.225Z,18.48
2022-09-15T16:44:00.654Z,18.37
2022-09-15T16:47:02.825Z,18.34
2022-09-15T16:50:05.663Z,18.26
2022-09-15T16:53:14.858Z,18.29
2022-09-15T16:56:17.811Z,18.24
2022-09-15T16:59:20.300Z,18.22
2022-09-15T17:02:22.893Z,18.16
2022-09-15T17:05:48.555Z,18.20
2022-09-15T17:08:52.085Z,18.18
2022-09-15T17:11:55.154Z,18.15
2022-09-15T17:14:58.255Z,18.12
2022-09-15T17:18:00.750Z,18.08
2022-09-15T17:21:03.372Z,18.04
2022-09-15T17:24:05.766Z,18.02
2022-09-15T17:27:08.089Z,17.85
2022-09-15T17:30:13.232Z,17.85
2022-09-15T17:33:16.547Z,17.74
2022-09-15T17:36:18.859Z,17.70
2022-09-15T17:39:21.229Z,17.70
2022-09-15T17:42:23.455Z,17.61
2022-09-15T17:45:30.217Z,17.54
2022-09-15T17:48:32.471Z,17.39
2022-09-15T17:51:35.381Z,17.36
2022-09-15T17:54:37.685Z,17.32
2022-09-15T17:57:40.489Z,17.28
2022-09-15T18:00:43.869Z,17.23
2022-09-15T18:03:46.850Z,17.24
2022-09-15T18:06:49.562Z,17.16
2022-09-15T18:09:51.989Z,17.01
2022-09-15T18:12:55.750Z,17.03
2022-09-15T18:16:04.839Z,16.97
2022-09-15T18:19:07.954Z,16.93
2022-09-15T18:22:11.338Z,16.89
2022-09-15T18:25:34.638Z,16.87
2022-09-15T18:28:37.037Z,16.78
2022-09-15T18:31:39.299Z,16.74
2022-09-15T18:34:41.643Z,16.72
2022-09-15T18:37:44.786Z,16.85
2022-09-15T18:40:55.894Z,16.77
2022-09-15T18:43:58.785Z,16.66
2022-09-15T18:47:01.293Z,16.56
2022-09-15T18:50:06.544Z,16.67
2022-09-15T18:53:09.555Z,16.61
2022-09-15T18:56:13.232Z,16.66
2022-09-15T18:59:17.755Z,16.59
2022-09-15T19:02:21.328Z,16.61
2022-09-15T19:05:24.179Z,16.58
2022-09-15T19:08:26.286Z,16.56
2022-09-15T19:11:29.435Z,16.63
2022-09-15T19:14:31.815Z,16.64
2022-09-15T19:17:34.189Z,16.58
2022-09-15T19:20:36.252Z,16.60
2022-09-15T19:23:39.361Z,16.43
2022-09-15T19:26:42.455Z,16.43
2022-09-15T19:29:44.948Z,16.37
2022-09-15T19:32:46.958Z,16.37
2022-09-15T19:35:56.306Z,16.37
2022-09-15T19:39:07.512Z,16.38
2022-09-15T19:42:10.888Z,16.34
2022-09-15T19:45:13.528Z,16.34
2022-09-15T19:48:15.888Z,16.38
2022-09-15T19:51:18.365Z,16.23
2022-09-15T19:54:24.112Z,16.23
2022-09-15T19:57:27.098Z,16.22
2022-09-15T20:00:29.681Z,16.14
2022-09-15T20:03:32.127Z,16.13
2022-09-15T20:06:35.664Z,16.22
2022-09-15T20:09:37.919Z,16.15
2022-09-15T20:12:40.393Z,16.14
2022-09-15T20:15:42.817Z,16.15
2022-09-15T20:18:48.146Z,16.13
2022-09-15T20:21:51.462Z,16.06
2022-09-15T20:24:56.278Z,16.05
2022-09-15T20:27:58.286Z,15.89
2022-09-15T20:31:26.992Z,15.94
2022-09-15T20:34:29.180Z,15.92
2022-09-15T20:37:36.693Z,15.97
2022-09-15T20:40:39.783Z,15.94
2022-09-15T20:43:42.559Z,15.85
2022-09-15T20:46:44.741Z,15.84
2022-09-15T20:49:47.201Z,15.81
2022-09-15T20:52:50.001Z,15.75
2022-09-15T20:55:52.360Z,15.71
2022-09-15T20:58:56.780Z,15.65
2022-09-15T21:01:59.514Z,15.62
2022-09-15T21:05:01.664Z,15.55
2022-09-15T21:08:03.974Z,15.42
2022-09-15T21:11:09.855Z,15.41
2022-09-15T21:14:14.010Z,15.17
2022-09-15T21:17:16.700Z,15.13
2022-09-15T21:20:19.039Z,15.10
2022-09-15T21:23:21.166Z,14.99
2022-09-15T21:26:25.560Z,14.91
2022-09-15T21:29:28.664Z,14.83
2022-09-15T21:32:33.137Z,14.79
2022-09-15T21:35:35.165Z,14.74
2022-09-15T21:38:39.004Z,14.58
2022-09-15T21:41:40.999Z,14.54
2022-09-15T21:44:43.275Z,14.47
2022-09-15T21:47:45.317Z,14.37
2022-09-15T21:50:52.160Z,14.29
2022-09-15T21:53:56.165Z,14.19
2022-09-15T21:56:58.504Z,14.12
2022-09-15T22:00:00.609Z,14.04
2022-09-15T22:03:02.867Z,13.91
2022-09-15T22:06:04.936Z,13.88
2022-09-15T22:09:21.201Z,13.82
2022-09-15T22:12:23.233Z,13.79
2022-09-15T22:15:25.909Z,13.68
2022-09-15T22:18:28.105Z,13.65
2022-09-15T22:21:36.868Z,13.51
2022-09-15T22:24:39.486Z,13.48
2022-09-15T22:27:42.598Z,13.36
2022-09-15T22:30:44.679Z,13.30
2022-09-15T22:33:47.541Z,13.25
2022-09-15T22:36:49.662Z,13.14
2022-09-15T22:39:59.594Z,13.14
2022-09-15T22:43:01.855Z,13.05
2022-09-15T22:46:05.123Z,12.97
2022-09-15T22:49:07.344Z,12.86
2022-09-15T22:52:09.648Z,12.78
2022-09-15T22:55:11.711Z,12.53
2022-09-15T22:58:14.041Z,12.43
2022-09-15T23:01:19.168Z,12.43
2022-09-15T23:04:21.645Z,12.43
2022-09-15T23:07:23.868Z,12.27
2022-09-15T23:10:26.743Z,12.29
2022-09-15T23:13:28.743Z,12.16
2022-09-15T23:16:31.384Z,12.16
2022-09-15T23:19:33.846Z,12.19
2022-09-15T23:22:36.112Z,12.21
2022-09-15T23:25:38.067Z,12.08
2022-09-15T23:28:40.332Z,12.04
2022-09-15T23:31:42.427Z,12.16
2022-09-15T23:34:44.710Z,12.12
2022-09-15T23:37:46.724Z,12.15
2022-09-15T23:40:50.426Z,12.20
2022-09-15T23:43:52.530Z,12.24
2022-09-15T23:46:54.813Z,12.31
2022-09-15T23:49:56.977Z,12.29
2022-09-15T23:52:59.295Z,12.36
2022-09-15T23:56:01.750Z,12.52
2022-09-15T23:59:04.070Z,12.48
